CheckWX is a tool to help pilots better visualize weather data.  It is not intended as a substitute for an official pre-flight weather briefing.

02:08:20 UTC

KTHV METAR
York Airport
York, Pennsylvania, USA
Current

15 mins ago

KTHV 180153Z AUTO 00000KT 3SM UP BR OVC032 00/M02 A2994 RMK AO2 RAB08E36UPB36 SLP147 P0002 T00001022
Observed
Feb-18 @ 01:53 UTC
Visibility
3 SM
Flight Rules
MVFR
Conditions
Mist, Unknown precipitation
Cloud Levels
  • Overcast at 3,200' AGL
Temperature
C / 32°F
Dewpoint
-2°C / 28°F
Humidity
87%
Altimeter
29.94" Hg
Pressure
1014.7 hPa
Current Rain
0.02"
Previous

1 hour ago

KTHV 180053Z AUTO 13004KT 10SM OVC037 01/M04 A2993 RMK AO2 SLP143 T00061039
Observed
Feb-18 @ 00:53 UTC
Wind
  • 130° at 4 KTS
Visibility
10 SM
Flight Rules
VFR
Cloud Levels
  • Overcast at 3,700' AGL
Temperature
C / 34°F
Dewpoint
-4°C / 25°F
Humidity
70%
Altimeter
29.93" Hg
Pressure
1014.3 hPa
Previous

2 hours ago

KTHV 172353Z AUTO 14005KT 10SM SCT040 OVC095 00/M04 A2994 RMK AO2 RAE01UPB01E06 SLP148 P0000 60000 T00001044 10011 20000 58015
Observed
Feb-17 @ 23:53 UTC
Wind
  • 140° at 5 KTS
Visibility
10 SM
Flight Rules
VFR
Cloud Levels
  • Scattered at 4,000' AGL
  • Overcast at 9,500' AGL
Temperature
C / 32°F
Dewpoint
-4°C / 25°F
Humidity
75%
Altimeter
29.94" Hg
Pressure
1014.8 hPa
Current Rain
0.01"